Domov               UVHVVR             MKGP            O straneh              
ZDRAVSTVENO VARSTVO RASTLIN
  MREŽA AGROMET. POSTAJ
 ► PROGNOSTIČNA OBVESTILA
AGROMETEOROLOŠKI PODATKI -
ARSO
OBVLADOVANJE TVEGANJ ZARADI
NEUGODNIH VREMENSKIH RAZMER
  ► NARAVNE NESREČE
  ► SUŠA/MOČA
  ► NAMAKANJE
  ► ŽLED (gozdarstvo)
KARTOGRAFSKI PRIKAZI
SPLETNE POVEZAVE
PROJEKTI IN PUBLIKACIJE

AGROMETEOROLOŠKA MREŽA: VREMENSKE POSTAJE IN FENOLOŠKA OPAZOVANJA

Pregled podatkov za lokacijo Slap, meteorološka postaja 49193

Pregled senzorjev na lokaciji

ID Ime Zadnja
vrednost
Datum
zadnje
spremembe
Tip
senzorja
3687 Temperatura 2 m ( °C) 13,95 °C 24.10.2017 10:30 50YA
3688 Relativna vlaga 2 m (% RH) 74,96 % RH 24.10.2017 10:30 50YA
3689 Omočenost lista (U) 1 U 24.10.2017 10:30 A730WET
3690 Sončno sevanje (W/m2) 2000 W/m2 24.10.2017 10:30 Pyranometer SP-Lite
3691 Temperatura tal ( °C) 14,64 °C 24.10.2017 10:30 99TG411E
3692 Hitrost vetra (km/h) 2,11 km/h 24.10.2017 10:30 566.2S-176 (200km/h)
3693 Smer vetra (°) 308,14 ° 24.10.2017 10:30 566.2S-130
3694 Padavine 0.2 mm (mm) 0 mm 24.10.2017 10:30 Rain-O-Matic

Pregled podatkov zadnjih 24 ur

Zap.
št.
Datum in čas Slap
Hitrost
vetra
Omočenost
lista
Padavine
0.2
mm
Relativna
vlaga
2
m
Smer
vetra
Sončno
sevanje
Temperatura
2
m
Temperatura
tal
0 24.10.2017 09:30 2,11 1 0 74,96 308,14 2000 13,95 14,64
1 24.10.2017 09:00 3,69 1 0 85,33 31,3 2000 11,74 14,68
2 24.10.2017 08:30 3,78 1 0 93,21 335,03 2000 9,48 14,48
3 24.10.2017 08:00 1,86 1 0 100 91,83 2000 6,71 14,34
4 24.10.2017 07:30 4,07 1 0 100 238,69 2000 6,04 14,43
5 24.10.2017 07:00 3,37 1 0 100 104,99 2000 5,43 14,46
6 24.10.2017 06:30 3,7 1 0 100 80,4 2000 5,08 14,31
7 24.10.2017 06:00 3,62 1 0 100 84,35 1233,36 2,89 13,84
8 24.10.2017 05:30 3,26 1 0 100 85,03 714,27 3,01 13,88
9 24.10.2017 05:00 3,8 1 0 100 156,56 603,01 3,22 13,92
10 24.10.2017 04:30 3,13 1 0 100 308,81 511,51 3,32 13,97
11 24.10.2017 04:00 1,85 1 0 100 196,93 387,18 3,97 14,02
12 24.10.2017 03:30 4,03 1 0 100 130,83 392,98 4,37 14,05
13 24.10.2017 03:00 3,77 1 0 100 223,77 393,8 4,27 14,1
14 24.10.2017 02:30 3,74 1 0 100 273,78 186,59 4,84 14,13
15 24.10.2017 02:00 1,75 1 0 100 211,05 382,88 5,14 14,19
16 24.10.2017 01:30 2,08 1 0 100 221,05 250,37 5,59 14,21
17 24.10.2017 01:00 2 1 0 100 208,22 306,43 6,01 14,26
18 24.10.2017 00:30 3,12 1 0 100 138,72 224,64 6,82 14,3
19 24.10.2017 00:00 2,82 1 0 99,09 22,4 7,02 14,32
20 23.10.2017 23:30 4,25 1 0 99,81 221,02 7,14 14,34
21 23.10.2017 23:00 2,05 1 0 100 176,69 6,93 14,35
22 23.10.2017 22:30 2,29 1 0 100 168,99 7,38 14,36
23 23.10.2017 22:00 2,19 1 0 100 137,5 7,69 14,38
24 23.10.2017 21:30 2,85 1 0 100 228,24 7,88 14,37
25 23.10.2017 21:00 1,72 1 0 99,79 147,49 8,35 14,37
26 23.10.2017 20:30 2,5 0 0 98,46 319,67 9,3 14,37
27 23.10.2017 20:00 1,81 0 0 96,66 130,76 10,12 14,38
28 23.10.2017 19:30 0,53 0 0 95,02 165,09 10,59 14,37
29 23.10.2017 19:00 2,21 0 0 92,59 221,58 11,09 14,37
30 23.10.2017 18:30 2,62 0 0 90,62 211,95 11,51 14,36
31 23.10.2017 18:00 2,73 0 0 87,64 151,78 13,16 14,53
32 23.10.2017 17:30 0,61 0 0 75,67 157,17 16,46 15,05
33 23.10.2017 17:00 3,54 0 0 65,29 280,16 18,06 15,1
34 23.10.2017 16:30 4,24 0 0 56,37 303,56 19,73 15,18
35 23.10.2017 16:00 2,47 0 0 53,42 301,91 20,35 15,22
36 23.10.2017 15:30 1,82 0 0 54,55 7,04 19,86 15,23
37 23.10.2017 15:00 1,82 0 0 49,31 82,67 20,1 15,09
38 23.10.2017 14:30 3,23 0 0 50,84 14,57 19,56 15,07
39 23.10.2017 14:00 2,4 0 0 49,94 355,17 19,23 15,1
40 23.10.2017 13:30 3,35 0 0 48,38 247,03 19,55 15,15
41 23.10.2017 13:00 3,34 0 0 49,79 55,15 18,85 15,15
42 23.10.2017 12:30 3,6 0 0 50,18 94,15 18,85 15,23
43 23.10.2017 12:00 2,94 0 0 51,7 82,78 18,64 15,08
44 23.10.2017 11:30 2,98 0 0 54,66 46,85 17,8 15,12
© 2011 Ministrstvo za kmetijstvo, gozdarstvo in prehrano. Vse pravice pridržane.